Time;durP1;ratioP1;P1;durP2;ratioP2;P2;SDS_P1;SDS_P2;PMS_P1;PMS_P2;Temp;Humidity;BMP_temperature;BMP_pressure;BME280_temperature;BME280_humidity;BME280_pressure;Samples;Min_cycle;Max_cycle;Signal;HPM_P1;HPM_P2
2020/12/28 00:02:22;;;;;;;7.67;5.40;;;5.10;99.90;;;;;;4995684;28;20664;-80
2020/12/28 00:04:48;;;;;;;8.27;4.70;;;5.10;99.90;;;;;;4997240;28;20215;-79
2020/12/28 00:07:15;;;;;;;12.37;5.57;;;5.30;99.90;;;;;;4979650;28;20704;-80
2020/12/28 00:09:42;;;;;;;9.77;5.60;;;5.30;99.90;;;;;;4997010;28;20574;-79
2020/12/28 00:12:07;;;;;;;8.77;6.10;;;5.30;99.90;;;;;;4996494;28;20258;-79
2020/12/28 00:14:36;;;;;;;7.80;6.13;;;5.40;99.90;;;;;;4996151;28;20194;-79
2020/12/28 00:17:02;;;;;;;13.27;6.90;;;5.50;99.90;;;;;;4996988;28;20167;-80
2020/12/28 00:19:27;;;;;;;9.50;6.73;;;5.50;99.90;;;;;;4996583;28;20220;-80
2020/12/28 00:21:53;;;;;;;13.50;6.87;;;5.40;99.90;;;;;;4996834;28;20174;-80
2020/12/28 00:24:18;;;;;;;8.90;6.07;;;5.40;99.90;;;;;;4979357;28;20170;-80
2020/12/28 00:26:47;;;;;;;9.87;6.00;;;5.40;99.90;;;;;;4996615;28;20202;-80
2020/12/28 00:29:14;;;;;;;7.40;5.50;;;5.20;99.90;;;;;;4991561;28;20175;-79
2020/12/28 00:31:43;;;;;;;7.73;5.10;;;5.10;99.90;;;;;;4977259;28;20226;-79
2020/12/28 00:34:13;;;;;;;7.63;4.63;;;5.20;99.90;;;;;;4977141;28;20234;-79
2020/12/28 00:36:38;;;;;;;6.97;4.63;;;5.40;99.90;;;;;;4959740;28;20163;-79
2020/12/28 00:39:05;;;;;;;6.77;4.57;;;5.20;99.90;;;;;;4980355;28;20182;-79
2020/12/28 00:41:32;;;;;;;7.20;4.47;;;5.30;99.90;;;;;;4996597;28;20190;-79
2020/12/28 00:43:57;;;;;;;9.17;4.27;;;5.20;99.90;;;;;;4979064;28;20170;-80
2020/12/28 00:46:23;;;;;;;5.43;4.53;;;5.20;99.90;;;;;;4996554;28;20638;-78
2020/12/28 00:48:49;;;;;;;12.20;4.37;;;5.30;99.90;;;;;;4994981;28;20253;-79
2020/12/28 00:51:15;;;;;;;7.43;4.73;;;5.10;99.90;;;;;;4976884;28;20638;-79
2020/12/28 00:53:43;;;;;;;7.67;5.20;;;5.20;99.90;;;;;;4976896;28;20163;-79
2020/12/28 00:56:09;;;;;;;8.23;4.93;;;5.30;99.90;;;;;;4976867;28;20310;-79
2020/12/28 00:58:38;;;;;;;4.50;4.10;;;5.30;99.90;;;;;;4976832;28;20637;-79
2020/12/28 01:01:05;;;;;;;4.93;4.10;;;5.10;99.90;;;;;;4977804;28;20193;-79
2020/12/28 01:03:31;;;;;;;5.93;4.60;;;5.10;99.90;;;;;;4996059;28;20167;-79
2020/12/28 01:05:56;;;;;;;7.87;4.90;;;5.20;99.90;;;;;;4978581;28;20178;-78
2020/12/28 01:08:22;;;;;;;5.77;4.50;;;5.20;99.90;;;;;;4978597;28;20170;-79
2020/12/28 01:10:48;;;;;;;6.83;4.27;;;5.20;99.90;;;;;;4961655;28;20179;-78
2020/12/28 01:13:17;;;;;;;7.17;3.97;;;5.10;99.90;;;;;;4959129;28;20201;-78
2020/12/28 01:15:43;;;;;;;5.87;4.30;;;5.00;99.90;;;;;;4976490;28;20174;-78
2020/12/28 01:18:09;;;;;;;7.27;4.17;;;5.00;99.90;;;;;;4976372;28;20174;-78
2020/12/28 01:20:39;;;;;;;4.37;3.97;;;4.90;99.90;;;;;;4959994;28;20179;-78
2020/12/28 01:23:05;;;;;;;7.43;4.00;;;4.90;99.90;;;;;;4976267;28;20171;-79
2020/12/28 01:25:30;;;;;;;5.97;4.07;;;4.90;99.90;;;;;;4958929;28;20177;-79
2020/12/28 01:27:56;;;;;;;8.10;4.50;;;4.90;99.90;;;;;;4982181;28;20195;-79
2020/12/28 01:30:21;;;;;;;6.70;4.60;;;4.90;99.90;;;;;;4995631;28;20167;-79
2020/12/28 01:32:47;;;;;;;7.30;4.83;;;4.90;99.90;;;;;;4995407;28;20231;-79
2020/12/28 01:35:12;;;;;;;6.60;4.40;;;5.00;99.90;;;;;;4996128;28;20194;-80
2020/12/28 01:37:38;;;;;;;5.00;3.97;;;4.90;99.90;;;;;;4991563;28;20626;-80
2020/12/28 01:40:06;;;;;;;7.33;4.20;;;4.90;99.90;;;;;;4975890;28;20182;-80
2020/12/28 01:42:32;;;;;;;6.63;4.40;;;4.90;99.90;;;;;;4958679;28;20172;-79
2020/12/28 01:44:58;;;;;;;5.63;4.43;;;4.80;99.90;;;;;;4958549;28;20171;-79
2020/12/28 01:47:25;;;;;;;6.27;4.57;;;4.90;99.90;;;;;;4976941;28;20203;-80
2020/12/28 01:49:51;;;;;;;6.33;4.50;;;4.90;99.90;;;;;;4977863;28;20262;-79
2020/12/28 01:52:18;;;;;;;6.40;4.13;;;4.90;99.90;;;;;;4995216;28;20245;-80
2020/12/28 01:54:43;;;;;;;6.30;5.03;;;4.90;99.90;;;;;;4995078;28;20173;-80
2020/12/28 01:57:10;;;;;;;6.40;5.73;;;4.90;99.90;;;;;;4995073;28;20257;-80
2020/12/28 01:59:36;;;;;;;9.23;5.57;;;4.70;99.90;;;;;;4976763;28;20222;-79
2020/12/28 02:02:07;;;;;;;11.97;5.50;;;4.60;99.90;;;;;;4995089;28;20174;-80
2020/12/28 02:04:32;;;;;;;7.60;4.93;;;4.60;99.90;;;;;;4994844;28;20294;-79
2020/12/28 02:06:58;;;;;;;6.83;5.23;;;4.50;99.90;;;;;;4995398;28;20285;-78
2020/12/28 02:09:24;;;;;;;7.20;5.10;;;4.60;99.90;;;;;;4960073;28;20171;-79
2020/12/28 02:11:50;;;;;;;8.57;5.30;;;4.60;99.90;;;;;;4975903;28;20222;-78
2020/12/28 02:14:15;;;;;;;6.53;4.63;;;4.70;99.90;;;;;;4975968;28;20634;-78
2020/12/28 02:16:44;;;;;;;6.97;5.10;;;4.80;99.90;;;;;;4975361;28;20167;-78
2020/12/28 02:19:10;;;;;;;7.87;4.73;;;4.80;99.90;;;;;;4975597;28;20172;-78
2020/12/28 02:21:37;;;;;;;9.33;5.67;;;4.80;99.90;;;;;;4975532;28;20680;-78
2020/12/28 02:24:03;;;;;;;10.37;6.03;;;4.90;99.90;;;;;;4957826;28;20254;-78
2020/12/28 02:26:30;;;;;;;8.33;5.80;;;4.80;99.90;;;;;;4975204;28;20222;-78
2020/12/28 02:28:56;;;;;;;9.63;6.43;;;4.70;99.90;;;;;;4987880;28;20290;-78
2020/12/28 02:31:22;;;;;;;11.20;6.30;;;4.60;99.90;;;;;;4994605;28;20175;-78
2020/12/28 02:33:47;;;;;;;8.73;6.43;;;4.60;99.90;;;;;;4994629;28;20162;-78
2020/12/28 02:36:13;;;;;;;12.30;7.07;;;4.60;99.90;;;;;;4994630;28;20173;-78
2020/12/28 02:38:38;;;;;;;12.77;8.13;;;4.70;99.90;;;;;;4983777;28;20167;-78
2020/12/28 02:41:05;;;;;;;11.33;7.63;;;4.70;99.90;;;;;;4957681;28;20174;-78
2020/12/28 02:43:30;;;;;;;13.27;7.60;;;4.80;99.90;;;;;;4974952;28;20242;-78
2020/12/28 02:45:59;;;;;;;8.87;7.27;;;4.70;99.90;;;;;;4975470;28;20302;-78
2020/12/28 02:48:25;;;;;;;13.90;8.03;;;4.70;99.90;;;;;;4976023;28;20229;-78
2020/12/28 02:50:50;;;;;;;13.13;8.17;;;4.80;99.90;;;;;;4974947;28;20626;-78
2020/12/28 02:53:17;;;;;;;13.73;7.63;;;4.80;99.90;;;;;;4975028;28;20167;-79
2020/12/28 02:55:42;;;;;;;12.93;7.70;;;4.80;99.90;;;;;;4974921;28;20195;-79
2020/12/28 02:58:08;;;;;;;10.03;7.43;;;4.80;99.90;;;;;;4989973;28;20213;-79
2020/12/28 03:00:34;;;;;;;10.83;7.83;;;4.80;99.90;;;;;;4994212;28;20187;-79
2020/12/28 03:03:00;;;;;;;15.13;7.90;;;4.90;99.90;;;;;;4994232;28;20221;-79
2020/12/28 03:05:26;;;;;;;10.53;7.53;;;4.90;99.90;;;;;;4987906;28;20654;-79
2020/12/28 03:07:51;;;;;;;12.63;7.13;;;4.80;99.90;;;;;;4974676;28;20206;-79
2020/12/28 03:10:17;;;;;;;14.27;7.70;;;4.80;99.90;;;;;;4974664;28;20167;-79
2020/12/28 03:12:43;;;;;;;10.47;7.87;;;4.70;99.90;;;;;;4957462;28;20171;-80
2020/12/28 03:15:08;;;;;;;11.63;7.13;;;4.70;99.90;;;;;;4978024;28;20174;-79
2020/12/28 03:17:34;;;;;;;9.90;7.10;;;4.70;99.90;;;;;;4993730;28;20183;-79
2020/12/28 03:19:59;;;;;;;13.27;7.30;;;4.80;99.90;;;;;;4982410;28;20171;-79
2020/12/28 03:22:25;;;;;;;10.67;7.03;;;4.70;99.90;;;;;;4974559;28;20163;-79
2020/12/28 03:24:54;;;;;;;11.43;6.63;;;4.70;99.90;;;;;;4975413;28;20159;-78
2020/12/28 03:27:19;;;;;;;15.70;7.00;;;4.80;99.90;;;;;;4993866;28;20558;-79
2020/12/28 03:29:45;;;;;;;9.50;6.67;;;4.80;99.90;;;;;;4994410;28;20234;-79
2020/12/28 03:32:10;;;;;;;11.73;7.07;;;4.90;99.90;;;;;;4993940;28;20163;-78
2020/12/28 03:34:36;;;;;;;10.37;6.30;;;5.00;99.90;;;;;;4993891;28;20162;-79
2020/12/28 03:37:01;;;;;;;14.17;6.90;;;4.90;99.90;;;;;;4976213;28;20202;-78
2020/12/28 03:39:27;;;;;;;14.17;6.50;;;4.90;99.90;;;;;;4993876;28;20162;-79
2020/12/28 03:41:53;;;;;;;14.37;7.60;;;4.90;99.90;;;;;;4993825;28;20167;-79
2020/12/28 03:44:18;;;;;;;15.27;8.50;;;4.90;99.90;;;;;;4993480;28;20262;-79
2020/12/28 03:46:47;;;;;;;17.20;10.07;;;4.90;99.90;;;;;;4993702;28;20207;-79
2020/12/28 03:49:24;;;;;;;28.87;13.30;;;4.90;99.90;;;;;;4996508;28;20158;-79
2020/12/28 03:51:50;;;;;;;36.87;13.53;;;4.80;99.90;;;;;;4997448;28;20150;-78
2020/12/28 03:54:15;;;;;;;38.10;15.87;;;4.70;99.90;;;;;;4988536;28;20314;-79
2020/12/28 03:56:41;;;;;;;35.03;14.50;;;4.70;99.90;;;;;;4977942;28;20167;-77
2020/12/28 03:59:07;;;;;;;38.47;15.50;;;4.80;99.90;;;;;;4978066;28;20666;-79
2020/12/28 04:01:33;;;;;;;40.73;14.60;;;4.70;99.90;;;;;;4977693;28;20171;-79
2020/12/28 04:03:59;;;;;;;32.83;14.13;;;4.70;99.90;;;;;;4966068;28;20209;-79
2020/12/28 04:06:25;;;;;;;26.13;11.87;;;4.70;99.90;;;;;;4997792;28;20186;-80
2020/12/28 04:12:13;;;;;;;30.23;12.77;;;4.70;99.90;;;;;;4998046;28;20158;-80
2020/12/28 04:14:39;;;;;;;31.27;12.37;;;4.70;99.90;;;;;;4988141;28;20619;-80
2020/12/28 04:17:05;;;;;;;33.45;14.32;;;4.70;99.90;;;;;;4976898;28;20457;-80
2020/12/28 04:19:30;;;;;;;28.93;11.87;;;4.70;99.90;;;;;;4977584;28;20210;-80
2020/12/28 04:21:56;;;;;;;30.23;10.90;;;4.70;99.90;;;;;;4960124;28;20616;-80
2020/12/28 04:24:21;;;;;;;29.70;11.70;;;4.80;99.90;;;;;;4983030;28;20179;-79
2020/12/28 04:26:47;;;;;;;23.07;9.87;;;4.70;99.90;;;;;;4979091;28;20550;-79
2020/12/28 04:29:13;;;;;;;27.27;11.52;;;4.70;99.90;;;;;;4996468;28;20904;-80
2020/12/28 04:31:40;;;;;;;25.67;10.27;;;4.60;99.90;;;;;;4996691;28;20626;-79
2020/12/28 04:34:06;;;;;;;24.07;9.87;;;4.70;99.90;;;;;;4978757;28;20554;-79
2020/12/28 04:36:32;;;;;;;26.47;10.73;;;4.70;99.90;;;;;;4997211;28;20171;-80
2020/12/28 04:38:57;;;;;;;24.17;10.10;;;4.60;99.90;;;;;;4996602;28;20221;-80
2020/12/28 04:41:27;;;;;;;22.07;9.50;;;4.70;99.90;;;;;;4996534;28;20175;-80
2020/12/28 04:43:55;;;;;;;23.60;10.50;;;4.60;99.90;;;;;;4994893;28;20217;-80
2020/12/28 04:46:21;;;;;;;23.40;10.70;;;4.70;99.90;;;;;;4959550;28;20584;-80
2020/12/28 04:48:47;;;;;;;27.70;11.30;;;4.80;99.90;;;;;;4977492;28;20171;-80
2020/12/28 04:51:13;;;;;;;30.07;11.73;;;4.90;99.90;;;;;;4977231;28;20238;-80
2020/12/28 04:53:42;;;;;;;33.33;12.97;;;4.90;99.90;;;;;;4989080;28;20207;-80
2020/12/28 04:56:08;;;;;;;28.47;12.67;;;5.00;99.90;;;;;;4996255;28;20178;-79
2020/12/28 04:58:37;;;;;;;25.23;11.70;;;5.00;99.90;;;;;;4996031;28;20213;-80
2020/12/28 05:01:03;;;;;;;28.07;11.73;;;5.00;99.90;;;;;;4996003;28;20656;-80
2020/12/28 05:03:31;;;;;;;32.00;11.27;;;4.90;99.90;;;;;;4984684;28;20203;-80
2020/12/28 05:05:57;;;;;;;30.07;10.63;;;4.90;99.90;;;;;;4976538;28;20155;-79
2020/12/28 05:08:23;;;;;;;24.13;9.83;;;4.80;99.90;;;;;;4977053;28;20318;-80
2020/12/28 05:10:50;;;;;;;25.73;9.07;;;4.90;99.90;;;;;;4959213;28;20168;-80
2020/12/28 05:13:19;;;;;;;24.63;8.87;;;4.90;99.90;;;;;;4976698;28;20594;-79
2020/12/28 05:15:48;;;;;;;20.33;9.43;;;4.80;99.90;;;;;;4976435;28;20194;-80
2020/12/28 05:18:18;;;;;;;23.40;8.67;;;4.80;99.90;;;;;;4976371;28;20769;-80
2020/12/28 05:20:54;;;;;;;24.60;7.90;;;4.90;99.90;;;;;;4959054;28;20268;-80
2020/12/28 05:23:20;;;;;;;21.50;7.73;;;4.90;99.90;;;;;;4976212;28;20167;-80
2020/12/28 05:25:51;;;;;;;20.50;6.37;;;5.00;99.90;;;;;;4976347;28;20195;-79
2020/12/28 05:28:20;;;;;;;16.53;6.10;;;5.10;99.90;;;;;;4976692;28;20202;-80
2020/12/28 05:30:50;;;;;;;13.90;5.30;;;5.10;99.90;;;;;;4958816;28;20183;-80
2020/12/28 05:33:21;;;;;;;17.50;5.57;;;5.10;99.90;;;;;;4984208;28;20260;-80
2020/12/28 05:35:47;;;;;;;14.63;5.07;;;5.10;99.90;;;;;;4977636;28;20270;-80
2020/12/28 05:38:14;;;;;;;17.00;5.90;;;5.10;99.90;;;;;;4995921;28;20246;-80
2020/12/28 05:40:42;;;;;;;17.13;5.23;;;5.10;99.90;;;;;;4995377;28;20170;-80
2020/12/28 05:43:11;;;;;;;13.83;5.07;;;5.10;99.90;;;;;;4988059;28;20564;-80
2020/12/28 05:45:45;;;;;;;16.03;4.77;;;5.30;99.90;;;;;;4958525;28;20657;-80
2020/12/28 05:48:16;;;;;;;18.67;4.90;;;5.30;99.90;;;;;;4975751;28;20242;-80
2020/12/28 05:50:43;;;;;;;13.47;4.70;;;5.40;99.90;;;;;;4975985;28;20163;-79
2020/12/28 05:53:09;;;;;;;16.33;4.63;;;5.40;99.90;;;;;;4995121;28;20165;-80
2020/12/28 05:55:36;;;;;;;10.33;4.17;;;5.30;99.90;;;;;;4994825;28;20664;-80
2020/12/28 05:58:01;;;;;;;18.77;4.70;;;5.30;99.90;;;;;;4960921;28;20182;-80
2020/12/28 06:00:27;;;;;;;10.57;4.30;;;5.20;99.90;;;;;;4975504;28;20195;-79
2020/12/28 06:02:53;;;;;;;11.50;4.40;;;5.30;99.90;;;;;;4993160;28;20179;-80
2020/12/28 06:05:20;;;;;;;10.93;4.27;;;5.30;99.90;;;;;;4994631;28;20211;-80
2020/12/28 06:07:47;;;;;;;15.37;4.30;;;5.30;99.90;;;;;;4977364;28;20198;-80
2020/12/28 06:10:14;;;;;;;20.80;4.77;;;5.20;99.90;;;;;;4977324;28;20602;-80
2020/12/28 06:12:43;;;;;;;16.77;4.73;;;5.30;99.90;;;;;;4992548;28;20511;-80
2020/12/28 06:15:19;;;;;;;11.57;4.63;;;5.10;99.90;;;;;;4994848;28;20209;-80
2020/12/28 06:17:45;;;;;;;14.30;4.27;;;5.20;99.90;;;;;;4994730;28;20224;-80
2020/12/28 06:20:11;;;;;;;16.83;4.67;;;5.30;99.90;;;;;;4994689;28;20177;-80
2020/12/28 06:22:38;;;;;;;11.03;4.33;;;5.10;99.90;;;;;;4979051;28;20167;-79
2020/12/28 06:25:16;;;;;;;11.23;4.37;;;4.80;99.90;;;;;;4975160;28;20254;-79
2020/12/28 06:27:43;;;;;;;12.17;4.30;;;4.80;99.90;;;;;;4975104;28;20198;-80
2020/12/28 06:30:19;;;;;;;18.97;4.17;;;5.00;99.90;;;;;;4982876;28;20241;-80
2020/12/28 06:32:47;;;;;;;12.73;4.40;;;5.10;99.90;;;;;;4995066;28;20178;-80
2020/12/28 06:35:15;;;;;;;17.37;4.73;;;5.10;99.90;;;;;;4994480;28;20216;-80
2020/12/28 06:37:45;;;;;;;14.30;4.20;;;5.30;99.90;;;;;;4994525;28;20194;-80
2020/12/28 06:40:12;;;;;;;16.27;4.37;;;5.30;99.90;;;;;;4985833;28;20258;-80
2020/12/28 06:42:39;;;;;;;14.03;3.90;;;5.40;99.90;;;;;;4957603;28;20210;-80
2020/12/28 06:45:15;;;;;;;12.47;4.17;;;5.30;99.90;;;;;;4974933;28;20210;-79
2020/12/28 06:47:41;;;;;;;9.23;3.23;;;5.20;99.90;;;;;;4974841;28;20282;-80
2020/12/28 06:50:07;;;;;;;11.90;3.73;;;5.20;99.90;;;;;;4957714;28;20171;-80
2020/12/28 06:52:33;;;;;;;10.03;3.90;;;5.00;99.90;;;;;;4957495;28;20178;-79
2020/12/28 06:55:06;;;;;;;20.93;3.93;;;4.80;99.90;;;;;;4974737;28;20182;-80
2020/12/28 06:57:31;;;;;;;12.43;3.53;;;4.90;99.90;;;;;;4974791;28;20745;-80
2020/12/28 06:59:57;;;;;;;12.53;3.63;;;5.00;99.90;;;;;;4980592;28;20273;-80
2020/12/28 07:02:23;;;;;;;12.50;3.47;;;5.10;99.90;;;;;;4994198;28;20172;-80
2020/12/28 07:04:50;;;;;;;13.97;3.83;;;5.10;99.90;;;;;;4976398;28;20214;-79
2020/12/28 07:07:15;;;;;;;13.27;3.60;;;5.20;99.90;;;;;;4994045;28;20198;-80
2020/12/28 07:09:41;;;;;;;11.43;3.70;;;5.00;99.90;;;;;;4977467;28;20642;-80
2020/12/28 07:12:10;;;;;;;14.13;4.23;;;4.90;99.90;;;;;;4974501;28;20258;-80
2020/12/28 07:14:37;;;;;;;13.63;4.00;;;5.00;99.90;;;;;;4974633;28;20159;-80
2020/12/28 07:17:04;;;;;;;10.77;3.30;;;4.90;99.90;;;;;;4974584;28;20174;-80
2020/12/28 07:19:30;;;;;;;13.37;3.83;;;4.90;99.90;;;;;;4971481;28;20622;-80
2020/12/28 07:21:55;;;;;;;11.30;4.13;;;4.80;99.90;;;;;;4976745;28;20229;-80
2020/12/28 07:24:21;;;;;;;15.70;4.63;;;5.10;99.90;;;;;;4980426;28;20734;-80
2020/12/28 07:26:50;;;;;;;19.73;5.60;;;5.00;99.90;;;;;;4998328;28;20547;-79
2020/12/28 07:29:18;;;;;;;19.93;5.50;;;4.90;99.90;;;;;;4984997;28;20178;-80
2020/12/28 07:31:45;;;;;;;13.57;5.47;;;5.00;99.90;;;;;;4978302;28;20190;-80
2020/12/28 07:34:19;;;;;;;20.17;4.33;;;4.80;99.90;;;;;;4978233;28;20202;-80
2020/12/28 07:36:47;;;;;;;11.70;3.37;;;5.10;99.90;;;;;;4979130;28;20555;-80
2020/12/28 07:39:13;;;;;;;12.57;3.80;;;4.90;99.90;;;;;;4978198;28;20510;-79
2020/12/28 07:41:39;;;;;;;16.47;4.33;;;4.80;99.90;;;;;;4978102;28;20179;-80
2020/12/28 07:44:05;;;;;;;10.90;3.43;;;4.70;99.90;;;;;;4984476;28;20167;-80
2020/12/28 07:46:31;;;;;;;10.17;2.90;;;4.60;99.90;;;;;;4997067;28;20209;-79
2020/12/28 07:49:24;;;;;;;11.47;3.40;;;4.70;99.90;;;;;;4979923;28;20195;-79
2020/12/28 07:52:15;;;;;;;8.07;2.83;;;4.60;99.90;;;;;;4984257;28;20179;-80
2020/12/28 07:54:46;;;;;;;8.10;2.97;;;4.60;99.90;;;;;;4968483;28;20175;-80
2020/12/28 07:57:22;;;;;;;9.83;3.80;;;4.50;99.90;;;;;;4977804;28;20163;-80
2020/12/28 08:00:04;;;;;;;10.37;3.70;;;4.50;99.90;;;;;;4960347;28;20187;-80
2020/12/28 08:02:36;;;;;;;16.27;5.80;;;4.40;99.90;;;;;;4977721;28;20186;-80
2020/12/28 08:05:02;;;;;;;18.70;7.00;;;4.50;99.90;;;;;;4991268;28;20257;-80
2020/12/28 08:07:35;;;;;;;19.77;8.05;;;4.50;99.90;;;;;;4978761;28;20954;-79
2020/12/28 08:10:06;;;;;;;12.07;5.03;;;4.80;99.90;;;;;;4997619;28;20155;-80
2020/12/28 08:12:32;;;;;;;11.33;3.93;;;4.80;99.90;;;;;;4990318;28;20168;-79
2020/12/28 08:14:58;;;;;;;12.03;4.03;;;4.90;99.90;;;;;;4977491;28;20545;-79
2020/12/28 08:17:28;;;;;;;16.33;4.20;;;5.20;99.90;;;;;;4977402;28;20187;-80
2020/12/28 08:20:07;;;;;;;13.60;6.63;;;5.50;99.90;;;;;;4977614;28;20674;-80
2020/12/28 08:22:32;;;;;;;11.73;6.03;;;5.30;99.90;;;;;;4983288;28;20501;-80
2020/12/28 08:25:04;;;;;;;15.32;7.25;;;5.20;99.90;;;;;;4978941;28;20467;-80
2020/12/28 08:27:31;;;;;;;15.97;7.00;;;5.40;99.90;;;;;;4996717;28;20183;-80
2020/12/28 08:30:01;;;;;;;15.20;7.17;;;5.70;99.90;;;;;;4996644;28;20622;-80
2020/12/28 08:32:28;;;;;;;19.67;6.77;;;5.60;99.90;;;;;;4973944;28;20199;-80
2020/12/28 08:34:58;;;;;;;16.98;8.32;;;5.40;99.90;;;;;;4975371;28;20422;-80
2020/12/28 08:37:24;;;;;;;14.93;6.90;;;5.40;99.90;;;;;;4960400;28;20166;-80
2020/12/28 08:39:51;;;;;;;15.10;6.17;;;5.20;99.90;;;;;;4977081;28;20198;-80
2020/12/28 08:42:32;;;;;;;20.97;10.30;;;5.20;99.90;;;;;;4980167;28;20214;-80
2020/12/28 08:44:57;;;;;;;18.17;10.77;;;5.20;99.90;;;;;;4996017;28;20455;-80
2020/12/28 08:47:25;;;;;;;14.10;7.70;;;5.50;99.90;;;;;;4996242;28;20681;-80
2020/12/28 08:49:52;;;;;;;13.80;5.93;;;5.40;99.90;;;;;;4978929;28;20194;-80
2020/12/28 08:52:19;;;;;;;17.60;5.30;;;5.30;99.90;;;;;;4993082;28;20178;-80
2020/12/28 08:54:53;;;;;;;13.47;6.07;;;5.30;99.90;;;;;;4976674;28;20713;-80
2020/12/28 08:57:27;;;;;;;17.60;6.43;;;5.50;99.90;;;;;;4976732;28;20638;-80
2020/12/28 08:59:54;;;;;;;11.17;5.10;;;5.60;99.90;;;;;;4976660;28;20196;-80
2020/12/28 09:02:21;;;;;;;9.70;3.87;;;5.60;99.90;;;;;;4982265;28;20529;-80
2020/12/28 09:04:48;;;;;;;10.00;5.10;;;5.70;99.90;;;;;;4995796;28;20222;-80
2020/12/28 09:07:14;;;;;;;10.48;5.10;;;5.70;99.90;;;;;;4995640;28;20448;-80
2020/12/28 09:09:44;;;;;;;16.97;4.93;;;5.70;99.90;;;;;;4978436;28;20503;-80
2020/12/28 09:12:11;;;;;;;14.63;4.53;;;5.80;99.90;;;;;;4995967;28;20159;-80
2020/12/28 09:14:37;;;;;;;11.77;3.77;;;5.90;99.90;;;;;;4978461;28;20185;-86
2020/12/28 09:17:03;;;;;;;7.23;3.90;;;5.80;99.90;;;;;;4979167;28;20170;-88
2020/12/28 09:19:29;;;;;;;12.67;4.70;;;5.70;99.90;;;;;;4978544;28;20443;-88
2020/12/28 09:21:56;;;;;;;11.23;6.00;;;5.80;99.90;;;;;;4963060;28;20176;-88
2020/12/28 09:24:22;;;;;;;8.30;4.50;;;5.60;99.90;;;;;;4959530;28;20235;-89
2020/12/28 09:26:47;;;;;;;10.20;4.70;;;5.50;99.90;;;;;;4959480;28;20306;-88
2020/12/28 09:29:13;;;;;;;10.50;5.13;;;5.40;99.90;;;;;;4959630;28;20159;-88
2020/12/28 09:31:39;;;;;;;8.97;4.60;;;5.40;99.90;;;;;;4972315;28;20166;-87
2020/12/28 09:34:07;;;;;;;9.27;5.20;;;5.20;99.90;;;;;;4978699;28;20202;-88
2020/12/28 09:36:33;;;;;;;9.77;4.10;;;5.20;99.90;;;;;;4978787;28;20174;-88
2020/12/28 09:38:59;;;;;;;13.30;4.00;;;5.20;99.90;;;;;;4978535;28;20257;-87
2020/12/28 09:41:25;;;;;;;6.30;3.87;;;5.20;99.90;;;;;;4977784;28;20174;-87
2020/12/28 09:43:50;;;;;;;13.03;4.07;;;5.30;99.90;;;;;;4978460;28;20551;-87
2020/12/28 09:46:20;;;;;;;11.03;4.30;;;5.30;99.90;;;;;;4977364;28;20175;-87
2020/12/28 09:48:47;;;;;;;9.53;4.20;;;5.50;99.90;;;;;;4978354;28;20206;-88
2020/12/28 09:51:12;;;;;;;6.87;3.50;;;5.70;99.90;;;;;;4977815;28;20205;-88
2020/12/28 09:53:39;;;;;;;12.03;3.97;;;5.80;99.90;;;;;;4978336;28;20166;-88
2020/12/28 09:56:06;;;;;;;9.60;4.83;;;6.00;99.90;;;;;;4978581;28;20182;-88
2020/12/28 09:58:32;;;;;;;8.77;4.30;;;6.40;99.90;;;;;;4977098;28;20423;-88
2020/12/28 10:00:59;;;;;;;13.50;5.80;;;6.70;99.90;;;;;;4958946;28;20246;-87
2020/12/28 10:03:28;;;;;;;8.97;4.80;;;7.00;99.90;;;;;;4958700;28;20190;-87
2020/12/28 10:05:57;;;;;;;8.47;3.30;;;7.10;99.90;;;;;;4958617;28;20626;-86
2020/12/28 10:08:22;;;;;;;11.25;4.43;;;6.90;99.90;;;;;;4957992;28;20441;-88
2020/12/28 10:10:48;;;;;;;11.23;2.80;;;6.80;99.90;;;;;;4976930;28;20221;-88
2020/12/28 10:13:14;;;;;;;9.97;3.10;;;7.00;99.90;;;;;;4978219;28;20171;-87
2020/12/28 10:15:40;;;;;;;11.07;3.43;;;7.10;99.90;;;;;;4977914;28;20672;-88
2020/12/28 10:18:21;;;;;;;4.37;3.13;;;7.00;99.90;;;;;;4995279;28;20170;-88
2020/12/28 10:20:49;;;;;;;11.77;4.32;;;7.00;99.90;;;;;;4974989;28;20475;-88
2020/12/28 10:23:18;;;;;;;12.37;4.83;;;6.80;99.90;;;;;;4958457;28;20622;-88
2020/12/28 10:25:46;;;;;;;5.90;3.13;;;6.80;99.90;;;;;;4958433;28;20174;-88
2020/12/28 10:28:12;;;;;;;8.97;3.23;;;6.60;99.90;;;;;;4958491;28;20302;-88
2020/12/28 10:30:37;;;;;;;5.23;2.60;;;6.70;99.90;;;;;;4958160;28;20266;-87
2020/12/28 10:33:03;;;;;;;7.33;2.67;;;6.60;99.90;;;;;;4958287;28;20172;-87
2020/12/28 10:35:29;;;;;;;10.33;2.60;;;6.60;99.90;;;;;;4958407;28;20175;-86
2020/12/28 10:37:58;;;;;;;9.83;2.60;;;6.60;99.90;;;;;;4958209;28;20183;-86
2020/12/28 10:40:29;;;;;;;8.90;3.60;;;6.60;99.90;;;;;;4958132;28;20635;-87
2020/12/28 10:42:58;;;;;;;7.53;2.70;;;6.60;99.90;;;;;;4958081;28;20179;-87
2020/12/28 10:45:23;;;;;;;8.27;2.93;;;6.60;99.90;;;;;;4958317;28;20163;-88
2020/12/28 10:47:51;;;;;;;9.47;2.87;;;6.60;99.90;;;;;;4958221;28;20680;-88
2020/12/28 10:50:17;;;;;;;14.97;2.83;;;6.80;99.90;;;;;;4958306;28;20190;-87
2020/12/28 10:52:43;;;;;;;11.07;2.63;;;7.00;99.90;;;;;;4974332;28;20346;-89
2020/12/28 10:55:08;;;;;;;8.70;2.30;;;7.10;99.90;;;;;;4976783;28;20170;-86
2020/12/28 10:57:34;;;;;;;5.33;2.37;;;7.20;99.90;;;;;;4976713;28;20175;-88
2020/12/28 10:59:59;;;;;;;7.37;2.50;;;7.20;99.90;;;;;;4977290;28;20217;-87
2020/12/28 11:02:25;;;;;;;5.93;2.43;;;7.30;99.90;;;;;;4994428;28;20190;-86
2020/12/28 11:04:51;;;;;;;3.20;2.03;;;7.40;99.90;;;;;;4977111;28;20230;-87
2020/12/28 11:07:20;;;;;;;7.10;2.57;;;7.40;99.90;;;;;;4977243;28;20206;-87
2020/12/28 11:09:48;;;;;;;9.30;3.13;;;7.40;99.90;;;;;;4973416;28;20182;-86
2020/12/28 11:12:16;;;;;;;10.13;2.60;;;7.40;99.90;;;;;;4975379;28;20179;-87
2020/12/28 11:14:42;;;;;;;8.67;2.07;;;7.20;99.90;;;;;;4957840;28;20171;-87
2020/12/28 11:17:08;;;;;;;9.93;2.40;;;7.10;99.90;;;;;;4958307;28;20179;-87
2020/12/28 11:19:33;;;;;;;6.47;2.27;;;7.00;99.90;;;;;;4957917;28;20171;-87
2020/12/28 11:22:02;;;;;;;5.93;2.37;;;6.90;99.90;;;;;;4957786;28;20183;-87
2020/12/28 11:24:27;;;;;;;7.27;2.90;;;7.00;99.90;;;;;;4957558;28;20171;-86
2020/12/28 11:26:53;;;;;;;6.82;2.78;;;7.30;99.90;;;;;;4957676;28;20442;-86
2020/12/28 11:29:18;;;;;;;5.30;2.40;;;7.40;99.90;;;;;;4991299;28;20311;-86
2020/12/28 11:31:46;;;;;;;5.73;2.93;;;7.40;99.90;;;;;;4976843;28;20599;-87
2020/12/28 11:34:12;;;;;;;6.50;2.70;;;7.30;99.90;;;;;;4976932;28;20174;-87
2020/12/28 11:36:41;;;;;;;6.33;3.10;;;7.50;99.90;;;;;;4976689;28;20400;-87
2020/12/28 11:39:14;;;;;;;9.63;2.90;;;7.50;99.90;;;;;;4976956;28;20552;-85
2020/12/28 11:41:40;;;;;;;5.53;2.87;;;7.50;99.90;;;;;;4977057;28;20653;-87
2020/12/28 11:44:10;;;;;;;11.27;3.10;;;7.50;99.90;;;;;;4976728;28;20170;-86
2020/12/28 11:46:37;;;;;;;5.93;2.87;;;7.50;99.90;;;;;;4977122;28;20206;-86
2020/12/28 11:49:05;;;;;;;6.95;3.83;;;7.50;99.90;;;;;;4959134;28;20984;-87
2020/12/28 11:51:33;;;;;;;8.00;2.87;;;7.50;99.90;;;;;;4957698;28;20262;-87
2020/12/28 11:53:58;;;;;;;3.23;2.67;;;7.60;99.90;;;;;;4957547;28;20175;-87
2020/12/28 11:56:24;;;;;;;8.00;2.97;;;7.80;99.90;;;;;;4957217;28;20171;-86
2020/12/28 11:58:50;;;;;;;5.70;3.07;;;7.90;99.90;;;;;;4956971;28;20245;-86
2020/12/28 12:01:18;;;;;;;3.77;2.60;;;7.90;99.90;;;;;;4974306;28;20182;-84
2020/12/28 12:03:49;;;;;;;6.83;3.07;;;8.00;99.90;;;;;;4956702;28;20210;-84
2020/12/28 12:06:17;;;;;;;7.83;3.10;;;8.00;99.90;;;;;;4956958;28;20258;-85
2020/12/28 12:09:27;;;;;;;5.30;3.57;;;8.10;99.90;;;;;;4956875;28;20202;-85
2020/12/28 12:11:35;;;;;;;6.30;3.07;;;8.10;99.90;;;;;;4988609;28;20166;-85
2020/12/28 12:14:01;;;;;;;9.53;2.90;;;8.10;99.90;;;;;;4979230;28;20676;-85
2020/12/28 12:16:26;;;;;;;7.70;3.20;;;8.00;99.90;;;;;;4979622;28;20198;-85
2020/12/28 12:18:53;;;;;;;4.67;2.90;;;8.10;99.90;;;;;;4979541;28;20204;-84
2020/12/28 12:21:19;;;;;;;13.07;3.57;;;8.10;99.90;;;;;;4979267;28;20617;-84
2020/12/28 12:23:44;;;;;;;9.40;3.47;;;8.10;99.90;;;;;;4979404;28;20264;-82
2020/12/28 12:26:10;;;;;;;8.00;3.17;;;8.20;99.90;;;;;;4979300;28;20170;-81
2020/12/28 12:28:36;;;;;;;6.13;3.00;;;8.30;99.90;;;;;;4996679;28;20337;-82
2020/12/28 12:31:02;;;;;;;10.27;3.37;;;8.10;99.90;;;;;;4979100;28;20209;-82
2020/12/28 12:33:29;;;;;;;6.57;3.03;;;8.10;99.90;;;;;;4979017;28;20163;-82
2020/12/28 12:35:54;;;;;;;13.37;3.77;;;8.00;99.90;;;;;;4979105;28;20601;-82
2020/12/28 12:38:20;;;;;;;6.97;3.27;;;8.00;99.90;;;;;;4979092;28;20166;-82
2020/12/28 12:40:46;;;;;;;4.13;2.70;;;8.30;99.90;;;;;;4996470;28;20155;-82
2020/12/28 12:43:11;;;;;;;5.93;2.40;;;8.20;99.90;;;;;;4978578;28;20222;-83
2020/12/28 12:45:37;;;;;;;8.23;3.63;;;8.10;99.90;;;;;;4963549;28;20167;-82
2020/12/28 12:48:03;;;;;;;8.73;3.97;;;8.10;99.90;;;;;;4967575;28;20262;-82
2020/12/28 12:50:29;;;;;;;9.97;3.90;;;8.30;99.90;;;;;;4968169;28;20182;-82
2020/12/28 12:52:54;;;;;;;7.23;3.57;;;8.50;99.90;;;;;;4966962;28;20198;-83
2020/12/28 12:55:20;;;;;;;5.40;3.20;;;8.80;99.90;;;;;;4960862;28;20167;-83